createdAt,value
2022-09-27T00:02:38.818Z,15.38
2022-09-27T00:05:22.001Z,15.43
2022-09-27T00:08:05.412Z,15.35
2022-09-27T00:10:48.440Z,15.43
2022-09-27T00:13:33.436Z,15.16
2022-09-27T00:16:16.602Z,15.05
2022-09-27T00:19:01.345Z,15.20
2022-09-27T00:21:45.555Z,15.17
2022-09-27T00:24:28.671Z,15.24
2022-09-27T00:27:11.697Z,15.18
2022-09-27T00:29:56.107Z,15.14
2022-09-27T00:32:39.149Z,15.22
2022-09-27T00:35:22.214Z,14.99
2022-09-27T00:38:05.319Z,15.01
2022-09-27T00:40:49.550Z,15.02
2022-09-27T00:43:45.832Z,15.15
2022-09-27T00:46:35.037Z,15.07
2022-09-27T00:49:23.126Z,15.04
2022-09-27T00:52:09.962Z,15.15
2022-09-27T00:54:59.980Z,15.12
2022-09-27T00:57:46.148Z,15.08
2022-09-27T01:00:29.463Z,15.03
2022-09-27T01:03:21.965Z,14.91
2022-09-27T01:06:07.813Z,14.82
2022-09-27T01:08:50.881Z,14.75
2022-09-27T01:11:42.875Z,14.84
2022-09-27T01:14:45.818Z,14.85
2022-09-27T01:17:40.814Z,14.78
2022-09-27T01:21:02.600Z,14.74
2022-09-27T01:24:07.946Z,14.68
2022-09-27T01:27:23.538Z,14.63
2022-09-27T01:30:18.089Z,14.15
2022-09-27T01:33:13.261Z,14.07
2022-09-27T01:36:13.526Z,14.04
2022-09-27T01:39:07.474Z,14.06
2022-09-27T01:42:01.677Z,14.21
2022-09-27T01:44:49.527Z,14.27
2022-09-27T01:47:42.156Z,14.23
2022-09-27T01:50:32.648Z,14.33
2022-09-27T01:53:21.449Z,14.19
2022-09-27T01:56:09.203Z,14.19
2022-09-27T01:58:58.178Z,14.26
2022-09-27T02:01:45.511Z,14.19
2022-09-27T02:04:34.459Z,14.16
2022-09-27T02:07:21.500Z,14.24
2022-09-27T02:10:11.614Z,14.19
2022-09-27T02:13:00.112Z,14.31
2022-09-27T02:15:54.438Z,14.39
2022-09-27T02:18:48.957Z,14.20
2022-09-27T02:21:42.155Z,14.13
2022-09-27T02:24:37.959Z,14.24
2022-09-27T02:27:27.828Z,14.27
2022-09-27T02:30:14.136Z,14.30
2022-09-27T02:32:57.221Z,14.12
2022-09-27T02:35:40.266Z,14.09
2022-09-27T02:38:25.446Z,14.17
2022-09-27T02:41:15.441Z,14.00
2022-09-27T02:44:03.173Z,14.19
2022-09-27T02:47:02.956Z,14.00
2022-09-27T02:50:02.348Z,14.07
2022-09-27T02:52:57.248Z,14.01
2022-09-27T02:55:50.865Z,14.11
2022-09-27T02:58:45.165Z,14.05
2022-09-27T03:01:37.532Z,14.19
2022-09-27T03:04:29.112Z,14.26
2022-09-27T03:07:13.994Z,14.28
2022-09-27T03:09:57.482Z,14.37
2022-09-27T03:12:41.958Z,14.38
2022-09-27T03:15:25.122Z,14.38
2022-09-27T03:18:08.351Z,14.43
2022-09-27T03:20:53.450Z,14.39
2022-09-27T03:23:36.514Z,14.35
2022-09-27T03:26:19.598Z,14.36
2022-09-27T03:29:04.130Z,14.33
2022-09-27T03:31:47.162Z,14.31
2022-09-27T03:34:30.463Z,14.24
2022-09-27T03:37:13.519Z,14.26
2022-09-27T03:39:56.720Z,14.21
2022-09-27T03:42:40.374Z,14.28
2022-09-27T03:45:24.824Z,14.35
2022-09-27T03:48:07.830Z,14.41
2022-09-27T03:50:52.713Z,14.46
2022-09-27T03:53:36.090Z,14.39
2022-09-27T03:56:19.447Z,14.44
2022-09-27T03:59:03.745Z,14.43
2022-09-27T04:01:48.386Z,14.43
2022-09-27T04:04:31.467Z,14.49
2022-09-27T04:07:14.620Z,14.35
2022-09-27T04:09:57.807Z,14.41
2022-09-27T04:12:41.465Z,14.41
2022-09-27T04:15:24.605Z,14.40
2022-09-27T04:18:09.067Z,14.30
2022-09-27T04:20:52.117Z,14.29
2022-09-27T04:23:35.201Z,14.35
2022-09-27T04:26:18.293Z,14.33
2022-09-27T04:29:01.522Z,14.38
2022-09-27T04:31:45.327Z,14.43
2022-09-27T04:34:45.960Z,14.37
2022-09-27T04:37:29.551Z,14.48
2022-09-27T04:40:12.643Z,14.48
2022-09-27T04:42:55.775Z,14.46
2022-09-27T04:45:38.792Z,14.60
2022-09-27T04:48:21.975Z,14.42
2022-09-27T04:51:06.731Z,14.58
2022-09-27T04:53:49.765Z,14.54
2022-09-27T04:56:32.803Z,14.55
2022-09-27T04:59:15.939Z,14.54
2022-09-27T05:02:00.670Z,14.52
2022-09-27T05:04:43.710Z,14.58
2022-09-27T05:07:28.694Z,14.58
2022-09-27T05:10:11.865Z,14.56
2022-09-27T05:12:54.982Z,14.60
2022-09-27T05:15:38.021Z,14.67
2022-09-27T05:18:21.123Z,14.57
2022-09-27T05:21:04.236Z,14.60
2022-09-27T05:23:48.624Z,14.59
2022-09-27T05:26:31.683Z,14.57
2022-09-27T05:29:15.176Z,14.68
2022-09-27T05:31:58.296Z,14.74
2022-09-27T05:34:41.605Z,14.80
2022-09-27T05:37:24.655Z,14.82
2022-09-27T05:40:29.391Z,15.02
2022-09-27T05:43:13.359Z,15.15
2022-09-27T05:45:56.454Z,15.15
2022-09-27T05:48:39.828Z,15.12
2022-09-27T05:51:23.147Z,15.08
2022-09-27T05:54:06.336Z,15.11
2022-09-27T05:56:51.382Z,15.14
2022-09-27T05:59:34.402Z,15.06
2022-09-27T06:02:18.459Z,15.07
2022-09-27T06:05:01.504Z,15.01
2022-09-27T06:07:44.827Z,15.00
2022-09-27T06:10:28.452Z,14.96
2022-09-27T06:13:15.468Z,14.92
2022-09-27T06:15:59.319Z,14.88
2022-09-27T06:18:44.131Z,14.76
2022-09-27T06:21:28.811Z,14.91
2022-09-27T06:24:12.792Z,14.90
2022-09-27T06:26:55.867Z,15.09
2022-09-27T06:29:40.484Z,15.30
2022-09-27T06:32:23.903Z,15.35
2022-09-27T06:35:07.662Z,15.43
2022-09-27T06:37:50.723Z,15.57
2022-09-27T06:40:33.944Z,15.81
2022-09-27T06:43:19.842Z,15.83
2022-09-27T06:46:06.025Z,15.95
2022-09-27T06:48:49.159Z,15.91
2022-09-27T06:51:32.233Z,15.83
2022-09-27T06:54:15.319Z,15.82
2022-09-27T06:57:02.295Z,15.71
2022-09-27T07:00:03.107Z,15.81
2022-09-27T07:02:48.921Z,15.77
2022-09-27T07:05:32.423Z,15.71
2022-09-27T07:08:15.425Z,15.68
2022-09-27T07:11:03.626Z,15.61
2022-09-27T07:13:46.685Z,15.71
2022-09-27T07:16:29.821Z,15.69
2022-09-27T07:19:15.312Z,15.77
2022-09-27T07:21:58.439Z,15.76
2022-09-27T07:24:41.453Z,15.64
2022-09-27T07:27:25.295Z,15.60
2022-09-27T07:30:09.669Z,15.69
2022-09-27T07:32:59.197Z,15.78
2022-09-27T07:35:44.165Z,15.67
2022-09-27T07:38:27.209Z,15.79
2022-09-27T07:41:13.529Z,15.84
2022-09-27T07:43:57.286Z,15.88
2022-09-27T07:46:40.331Z,15.93
2022-09-27T07:49:23.335Z,16.00
2022-09-27T07:52:07.773Z,15.88
2022-09-27T07:54:50.814Z,15.94
2022-09-27T07:57:34.447Z,15.91
2022-09-27T08:00:19.864Z,15.96
2022-09-27T08:03:06.963Z,15.89
2022-09-27T08:05:50.071Z,16.01
2022-09-27T08:08:34.522Z,16.14
2022-09-27T08:11:19.045Z,16.35
2022-09-27T08:14:02.389Z,16.57
2022-09-27T08:16:45.613Z,16.62
2022-09-27T08:19:29.305Z,17.19
2022-09-27T08:22:14.082Z,17.74
2022-09-27T08:24:58.629Z,17.57
2022-09-27T08:27:41.799Z,17.47
2022-09-27T08:30:25.636Z,17.19
2022-09-27T08:33:08.866Z,16.76
2022-09-27T08:35:51.867Z,16.68
2022-09-27T08:38:34.916Z,17.05
2022-09-27T08:41:33.966Z,17.32
2022-09-27T08:44:28.679Z,17.37
2022-09-27T08:47:17.801Z,17.45
2022-09-27T08:50:05.731Z,18.10
2022-09-27T08:52:53.642Z,18.51
2022-09-27T08:55:40.783Z,18.17
2022-09-27T08:58:28.892Z,17.93
2022-09-27T09:01:15.923Z,18.02
2022-09-27T09:04:04.317Z,17.98
2022-09-27T09:06:59.988Z,17.66
2022-09-27T09:09:54.253Z,17.32
2022-09-27T09:12:49.393Z,17.46
2022-09-27T09:15:55.428Z,17.94
2022-09-27T09:19:00.513Z,18.82
2022-09-27T09:21:59.035Z,19.35
2022-09-27T09:24:56.723Z,19.19
2022-09-27T09:27:48.861Z,19.09
2022-09-27T09:30:43.173Z,19.01
2022-09-27T09:33:31.102Z,18.98
2022-09-27T09:36:26.054Z,18.85
2022-09-27T09:39:14.957Z,18.72
2022-09-27T09:42:08.955Z,18.61
2022-09-27T09:44:55.611Z,18.26
2022-09-27T09:47:43.557Z,18.34
2022-09-27T09:50:30.467Z,18.41
2022-09-27T09:53:17.859Z,18.34
2022-09-27T09:56:05.710Z,18.06
2022-09-27T09:58:53.084Z,18.06
2022-09-27T10:01:41.934Z,18.13
2022-09-27T10:04:28.886Z,18.20
2022-09-27T10:07:12.223Z,18.24
2022-09-27T10:09:58.278Z,18.05
2022-09-27T10:12:41.415Z,17.98
2022-09-27T10:15:26.867Z,17.93
2022-09-27T10:18:19.086Z,17.75
2022-09-27T10:21:07.973Z,17.68
2022-09-27T10:24:11.317Z,17.56
2022-09-27T10:27:01.602Z,17.77
2022-09-27T10:29:44.686Z,17.92
2022-09-27T10:32:31.525Z,18.17
2022-09-27T10:35:23.959Z,18.28
2022-09-27T10:38:30.022Z,18.07
2022-09-27T10:41:25.762Z,17.68
2022-09-27T10:44:27.337Z,17.75
2022-09-27T10:47:14.128Z,17.66
2022-09-27T10:50:07.854Z,17.39
2022-09-27T10:53:03.210Z,17.39
2022-09-27T10:55:50.155Z,17.83
2022-09-27T10:58:36.225Z,18.09
2022-09-27T11:01:20.001Z,18.20
2022-09-27T11:04:03.368Z,18.37
2022-09-27T11:06:46.471Z,18.43
2022-09-27T11:09:30.605Z,18.43
2022-09-27T11:12:18.347Z,18.64
2022-09-27T11:15:06.748Z,18.75
2022-09-27T11:17:57.652Z,18.80
2022-09-27T11:20:47.078Z,18.71
2022-09-27T11:23:48.906Z,18.74
2022-09-27T11:26:44.882Z,18.90
2022-09-27T11:29:41.021Z,19.08
2022-09-27T11:32:36.250Z,19.26
2022-09-27T11:35:47.282Z,19.37
2022-09-27T11:38:53.706Z,19.42
2022-09-27T11:41:49.450Z,19.19
2022-09-27T11:45:31.901Z,19.19
2022-09-27T11:48:17.487Z,19.36
2022-09-27T11:51:11.138Z,19.64
2022-09-27T11:54:07.027Z,19.58
2022-09-27T11:56:59.061Z,19.89
2022-09-27T12:00:05.874Z,20.45
2022-09-27T12:03:23.868Z,20.76
2022-09-27T12:06:15.032Z,20.77
2022-09-27T12:09:04.733Z,20.67
2022-09-27T12:11:52.796Z,20.86
2022-09-27T12:14:39.718Z,21.32
2022-09-27T12:17:27.625Z,21.65
2022-09-27T12:20:20.630Z,21.96
2022-09-27T12:23:07.195Z,21.97
2022-09-27T12:25:54.493Z,22.45
2022-09-27T12:28:44.104Z,23.19
2022-09-27T12:31:33.637Z,23.15
2022-09-27T12:34:21.138Z,22.98
2022-09-27T12:37:12.950Z,22.81
2022-09-27T12:40:01.655Z,22.85
2022-09-27T12:42:51.278Z,23.12
2022-09-27T12:45:51.428Z,23.13
2022-09-27T12:48:45.805Z,23.05
2022-09-27T12:51:37.062Z,23.03
2022-09-27T12:54:57.347Z,23.19
2022-09-27T12:57:51.708Z,23.23
2022-09-27T13:00:43.028Z,23.22
2022-09-27T13:03:44.634Z,23.33
2022-09-27T13:06:50.057Z,23.40
2022-09-27T13:09:59.371Z,23.77
2022-09-27T13:12:48.498Z,24.12
2022-09-27T13:15:34.087Z,24.43
2022-09-27T13:18:32.248Z,25.11
2022-09-27T13:21:53.763Z,25.31
2022-09-27T13:24:47.226Z,25.54
2022-09-27T13:27:37.740Z,25.92
2022-09-27T13:30:48.230Z,26.28
2022-09-27T13:33:43.325Z,26.17
2022-09-27T13:36:32.138Z,26.30
2022-09-27T13:39:21.324Z,26.08
2022-09-27T13:42:17.184Z,26.35
2022-09-27T13:45:24.208Z,26.21
2022-09-27T13:48:16.105Z,25.90
2022-09-27T13:51:04.114Z,25.95
2022-09-27T13:53:58.783Z,25.97
2022-09-27T13:56:53.691Z,26.09
2022-09-27T13:59:50.435Z,26.28
2022-09-27T14:02:41.234Z,25.88
2022-09-27T14:05:31.300Z,25.88
2022-09-27T14:08:25.456Z,25.91
2022-09-27T14:11:13.834Z,26.03
2022-09-27T14:13:59.256Z,25.89
2022-09-27T14:16:46.301Z,25.54
2022-09-27T14:19:30.112Z,25.49
2022-09-27T14:22:14.706Z,25.46
2022-09-27T14:24:58.464Z,25.53
2022-09-27T14:27:41.468Z,25.50
2022-09-27T14:30:27.816Z,25.14
2022-09-27T14:33:28.981Z,24.78
2022-09-27T14:36:45.532Z,24.57
2022-09-27T14:39:32.478Z,23.94
2022-09-27T14:42:21.935Z,23.68
2022-09-27T14:45:17.352Z,23.19
2022-09-27T14:48:00.718Z,22.67
2022-09-27T14:50:56.320Z,21.95
2022-09-27T14:53:44.028Z,21.65
2022-09-27T14:56:32.329Z,21.29
2022-09-27T14:59:17.335Z,20.91
2022-09-27T15:02:02.070Z,20.64
2022-09-27T15:04:47.085Z,20.41
2022-09-27T15:07:33.015Z,20.29
2022-09-27T15:10:18.486Z,20.20
2022-09-27T15:13:05.225Z,20.08
2022-09-27T15:15:49.514Z,19.93
2022-09-27T15:18:40.863Z,19.83
2022-09-27T15:21:32.779Z,19.76
2022-09-27T15:24:44.715Z,19.41
2022-09-27T15:27:28.575Z,18.89
2022-09-27T15:30:19.226Z,18.50
2022-09-27T15:33:02.703Z,18.37
2022-09-27T15:35:51.763Z,18.15
2022-09-27T15:38:37.853Z,17.75
2022-09-27T15:41:22.412Z,17.57
2022-09-27T15:44:37.102Z,17.38
2022-09-27T15:47:56.289Z,17.15
2022-09-27T15:50:41.195Z,17.02
2022-09-27T15:53:46.065Z,16.97
2022-09-27T15:56:30.533Z,16.93
2022-09-27T15:59:20.974Z,16.68
2022-09-27T16:02:11.262Z,16.63
2022-09-27T16:04:54.457Z,16.67
2022-09-27T16:07:37.535Z,16.57
2022-09-27T16:10:22.520Z,16.53
2022-09-27T16:13:06.945Z,16.44
2022-09-27T16:15:50.717Z,16.28
2022-09-27T16:18:34.072Z,16.24
2022-09-27T16:21:17.838Z,15.85
2022-09-27T16:24:04.155Z,15.45
2022-09-27T16:26:49.115Z,15.24
2022-09-27T16:29:33.867Z,15.23
2022-09-27T16:32:16.893Z,15.37
2022-09-27T16:35:00.056Z,15.36
2022-09-27T16:37:43.489Z,15.09
2022-09-27T16:40:28.315Z,15.22
2022-09-27T16:43:12.131Z,15.26
2022-09-27T16:45:58.896Z,15.21
2022-09-27T16:48:42.167Z,15.20
2022-09-27T16:51:42.718Z,15.11
2022-09-27T16:54:25.843Z,14.86
2022-09-27T16:57:09.170Z,14.81
2022-09-27T16:59:52.502Z,14.54
2022-09-27T17:02:37.243Z,14.48
2022-09-27T17:05:21.187Z,14.54
2022-09-27T17:08:05.540Z,14.64
2022-09-27T17:10:48.578Z,14.56
2022-09-27T17:13:31.601Z,14.66
2022-09-27T17:16:15.011Z,14.60
2022-09-27T17:18:59.871Z,14.49
2022-09-27T17:21:43.609Z,14.40
2022-09-27T17:24:27.760Z,14.34
2022-09-27T17:27:10.869Z,14.33
2022-09-27T17:29:53.967Z,14.35
2022-09-27T17:32:38.683Z,14.34
2022-09-27T17:35:23.075Z,14.39
2022-09-27T17:38:06.447Z,14.41
2022-09-27T17:40:49.590Z,14.51
2022-09-27T17:43:34.174Z,14.63
2022-09-27T17:46:18.589Z,14.59
2022-09-27T17:49:20.273Z,14.57
2022-09-27T17:52:04.841Z,14.53
2022-09-27T17:54:47.884Z,14.46
2022-09-27T17:57:31.871Z,14.56
2022-09-27T18:00:14.991Z,14.62
2022-09-27T18:02:58.093Z,14.68
2022-09-27T18:05:41.217Z,14.76
2022-09-27T18:08:28.153Z,14.67
2022-09-27T18:11:12.883Z,14.68
2022-09-27T18:13:56.725Z,14.66
2022-09-27T18:16:43.051Z,14.66
2022-09-27T18:19:26.578Z,14.69
2022-09-27T18:22:09.632Z,14.71
2022-09-27T18:24:54.073Z,14.53
2022-09-27T18:27:37.939Z,14.39
2022-09-27T18:30:20.974Z,14.28
2022-09-27T18:33:04.037Z,14.27
2022-09-27T18:35:47.107Z,14.16
2022-09-27T18:38:30.192Z,14.17
2022-09-27T18:41:16.392Z,14.09
2022-09-27T18:44:01.334Z,14.01
2022-09-27T18:46:44.446Z,13.89
2022-09-27T18:49:33.610Z,13.88
2022-09-27T18:52:17.106Z,13.79
2022-09-27T18:55:00.345Z,13.83
2022-09-27T18:57:44.740Z,13.83
2022-09-27T19:00:29.317Z,13.79
2022-09-27T19:03:15.540Z,13.67
2022-09-27T19:06:01.952Z,13.76
2022-09-27T19:08:45.051Z,13.72
2022-09-27T19:11:29.355Z,13.66
2022-09-27T19:14:17.048Z,13.60
2022-09-27T19:17:00.221Z,13.57
2022-09-27T19:19:43.282Z,13.54
2022-09-27T19:22:26.438Z,13.46
2022-09-27T19:25:11.044Z,13.41
2022-09-27T19:27:54.413Z,13.38
2022-09-27T19:30:42.613Z,13.36
2022-09-27T19:33:25.775Z,13.37
2022-09-27T19:36:11.799Z,13.37
2022-09-27T19:38:56.516Z,13.30
2022-09-27T19:41:40.393Z,13.17
2022-09-27T19:44:25.610Z,13.19
2022-09-27T19:47:10.132Z,13.03
2022-09-27T19:49:53.119Z,13.11
2022-09-27T19:52:36.369Z,13.11
2022-09-27T19:55:21.316Z,13.04
2022-09-27T19:58:04.394Z,13.07
2022-09-27T20:00:47.834Z,13.04
2022-09-27T20:03:32.320Z,13.03
2022-09-27T20:06:17.686Z,12.99
2022-09-27T20:09:03.058Z,12.98
2022-09-27T20:11:46.344Z,12.97
2022-09-27T20:14:29.289Z,12.96
2022-09-27T20:17:12.281Z,12.89
2022-09-27T20:19:56.715Z,12.85
2022-09-27T20:22:39.748Z,12.92
2022-09-27T20:25:23.185Z,12.89
2022-09-27T20:28:06.589Z,12.81
2022-09-27T20:30:58.463Z,12.83
2022-09-27T20:33:46.621Z,12.81
2022-09-27T20:36:32.894Z,12.81
2022-09-27T20:39:17.157Z,12.79
2022-09-27T20:42:00.349Z,12.74
2022-09-27T20:44:43.317Z,12.61
2022-09-27T20:47:26.431Z,12.73
2022-09-27T20:50:10.095Z,12.74
2022-09-27T20:52:54.555Z,12.72
2022-09-27T20:55:38.075Z,12.74
2022-09-27T20:58:21.133Z,12.75
2022-09-27T21:01:08.110Z,12.73
2022-09-27T21:03:54.833Z,12.68
2022-09-27T21:06:37.847Z,12.64
2022-09-27T21:09:22.212Z,12.70
2022-09-27T21:12:05.558Z,12.77
2022-09-27T21:14:48.570Z,12.76
2022-09-27T21:17:31.563Z,12.75
2022-09-27T21:20:14.797Z,12.68
2022-09-27T21:22:57.793Z,12.64
2022-09-27T21:25:42.992Z,12.63
2022-09-27T21:28:26.049Z,12.56
2022-09-27T21:31:10.586Z,12.53
2022-09-27T21:33:55.457Z,12.49
2022-09-27T21:36:40.060Z,12.50
2022-09-27T21:39:23.081Z,12.52
2022-09-27T21:42:08.227Z,12.45
2022-09-27T21:44:51.215Z,12.41
2022-09-27T21:47:34.305Z,12.38
2022-09-27T21:50:17.608Z,12.32
2022-09-27T21:53:00.701Z,12.24
2022-09-27T21:55:43.689Z,12.22
2022-09-27T21:58:29.037Z,12.15
2022-09-27T22:01:14.994Z,12.15
2022-09-27T22:03:59.348Z,12.20
2022-09-27T22:06:42.453Z,12.11
2022-09-27T22:09:25.863Z,12.08
2022-09-27T22:12:09.244Z,12.16
2022-09-27T22:14:53.615Z,12.14
2022-09-27T22:17:36.623Z,12.19
2022-09-27T22:20:19.720Z,12.11
2022-09-27T22:23:03.212Z,12.15
2022-09-27T22:25:46.306Z,12.08
2022-09-27T22:28:29.327Z,12.08
2022-09-27T22:31:15.259Z,12.11
2022-09-27T22:33:59.935Z,12.07
2022-09-27T22:36:42.959Z,12.04
2022-09-27T22:39:26.287Z,11.97
2022-09-27T22:42:09.315Z,12.03
2022-09-27T22:44:52.324Z,11.91
2022-09-27T22:47:37.071Z,11.97
2022-09-27T22:50:20.087Z,11.87
2022-09-27T22:53:03.095Z,11.81
2022-09-27T22:56:00.651Z,11.79
2022-09-27T22:58:47.728Z,11.75
2022-09-27T23:01:31.755Z,11.75
2022-09-27T23:04:16.297Z,11.74
2022-09-27T23:06:59.322Z,11.67
2022-09-27T23:09:42.364Z,11.68
2022-09-27T23:12:25.345Z,11.69
2022-09-27T23:15:09.888Z,11.67
2022-09-27T23:17:52.954Z,11.66
2022-09-27T23:20:38.188Z,11.60
2022-09-27T23:23:21.280Z,11.57
2022-09-27T23:26:06.890Z,11.55
2022-09-27T23:28:53.171Z,11.51
2022-09-27T23:31:36.236Z,11.42
2022-09-27T23:34:19.716Z,11.33
2022-09-27T23:37:04.150Z,11.32
2022-09-27T23:39:47.291Z,11.21
2022-09-27T23:42:30.327Z,11.29
2022-09-27T23:45:14.284Z,11.24
2022-09-27T23:47:57.687Z,11.17
2022-09-27T23:50:41.094Z,11.20
2022-09-27T23:53:26.107Z,11.23
2022-09-27T23:56:10.401Z,11.22
2022-09-27T23:58:53.397Z,11.18
